sensor_id;sensor_type;location;lat;lon;timestamp;P1;durP1;ratioP1;P2;durP2;ratioP2
40072;SDS011;25774;52.256;9.356;2023-04-24T00:01:44;1.03;;;0.40;;
40072;SDS011;25774;52.256;9.356;2023-04-24T00:04:10;1.83;;;0.60;;
40072;SDS011;25774;52.256;9.356;2023-04-24T00:06:37;0.90;;;0.50;;
40072;SDS011;25774;52.256;9.356;2023-04-24T00:09:03;0.38;;;0.30;;
40072;SDS011;25774;52.256;9.356;2023-04-24T00:11:28;1.23;;;0.50;;
40072;SDS011;25774;52.256;9.356;2023-04-24T00:13:53;2.20;;;1.27;;
40072;SDS011;25774;52.256;9.356;2023-04-24T00:16:21;1.57;;;0.90;;
40072;SDS011;25774;52.256;9.356;2023-04-24T00:18:46;0.52;;;0.30;;
40072;SDS011;25774;52.256;9.356;2023-04-24T00:21:12;1.38;;;0.45;;
40072;SDS011;25774;52.256;9.356;2023-04-24T00:23:38;0.63;;;0.40;;
40072;SDS011;25774;52.256;9.356;2023-04-24T00:26:03;0.40;;;0.30;;
40072;SDS011;25774;52.256;9.356;2023-04-24T00:28:28;2.23;;;0.40;;
40072;SDS011;25774;52.256;9.356;2023-04-24T00:30:53;2.13;;;0.70;;
40072;SDS011;25774;52.256;9.356;2023-04-24T00:33:19;0.93;;;0.50;;
40072;SDS011;25774;52.256;9.356;2023-04-24T00:35:45;1.60;;;0.50;;
40072;SDS011;25774;52.256;9.356;2023-04-24T00:38:11;1.33;;;0.55;;
40072;SDS011;25774;52.256;9.356;2023-04-24T00:40:36;0.70;;;0.50;;
40072;SDS011;25774;52.256;9.356;2023-04-24T00:43:01;0.90;;;0.50;;
40072;SDS011;25774;52.256;9.356;2023-04-24T00:45:27;3.40;;;0.57;;
40072;SDS011;25774;52.256;9.356;2023-04-24T00:47:52;1.53;;;0.50;;
40072;SDS011;25774;52.256;9.356;2023-04-24T00:50:17;1.23;;;0.50;;
40072;SDS011;25774;52.256;9.356;2023-04-24T00:55:09;1.85;;;0.60;;
40072;SDS011;25774;52.256;9.356;2023-04-24T00:57:35;3.42;;;0.50;;
40072;SDS011;25774;52.256;9.356;2023-04-24T01:00:00;2.83;;;0.70;;
40072;SDS011;25774;52.256;9.356;2023-04-24T01:02:25;1.17;;;0.70;;
40072;SDS011;25774;52.256;9.356;2023-04-24T01:04:51;1.10;;;0.53;;
40072;SDS011;25774;52.256;9.356;2023-04-24T01:07:18;0.50;;;0.43;;
40072;SDS011;25774;52.256;9.356;2023-04-24T01:09:45;1.00;;;0.57;;
40072;SDS011;25774;52.256;9.356;2023-04-24T01:12:13;0.90;;;0.47;;
40072;SDS011;25774;52.256;9.356;2023-04-24T01:14:39;1.38;;;0.50;;
40072;SDS011;25774;52.256;9.356;2023-04-24T01:17:04;3.53;;;0.70;;
40072;SDS011;25774;52.256;9.356;2023-04-24T01:19:30;0.50;;;0.35;;
40072;SDS011;25774;52.256;9.356;2023-04-24T01:21:58;0.60;;;0.50;;
40072;SDS011;25774;52.256;9.356;2023-04-24T01:24:23;1.92;;;0.50;;
40072;SDS011;25774;52.256;9.356;2023-04-24T01:26:48;0.77;;;0.47;;
40072;SDS011;25774;52.256;9.356;2023-04-24T01:29:13;0.80;;;0.40;;
40072;SDS011;25774;52.256;9.356;2023-04-24T01:31:39;2.17;;;0.70;;
40072;SDS011;25774;52.256;9.356;2023-04-24T01:34:04;0.93;;;0.50;;
40072;SDS011;25774;52.256;9.356;2023-04-24T01:36:30;0.80;;;0.50;;
40072;SDS011;25774;52.256;9.356;2023-04-24T01:41:23;1.83;;;0.50;;
40072;SDS011;25774;52.256;9.356;2023-04-24T01:43:48;0.75;;;0.40;;
40072;SDS011;25774;52.256;9.356;2023-04-24T01:46:14;3.20;;;0.63;;
40072;SDS011;25774;52.256;9.356;2023-04-24T01:51:05;0.73;;;0.43;;
40072;SDS011;25774;52.256;9.356;2023-04-24T01:53:30;1.20;;;0.50;;
40072;SDS011;25774;52.256;9.356;2023-04-24T01:55:55;1.43;;;0.60;;
40072;SDS011;25774;52.256;9.356;2023-04-24T01:58:20;1.10;;;0.67;;
40072;SDS011;25774;52.256;9.356;2023-04-24T02:00:46;1.45;;;0.52;;
40072;SDS011;25774;52.256;9.356;2023-04-24T02:03:11;1.80;;;0.50;;
40072;SDS011;25774;52.256;9.356;2023-04-24T02:05:37;1.33;;;0.60;;
40072;SDS011;25774;52.256;9.356;2023-04-24T02:08:02;0.93;;;0.40;;
40072;SDS011;25774;52.256;9.356;2023-04-24T02:10:27;0.50;;;0.40;;
40072;SDS011;25774;52.256;9.356;2023-04-24T02:12:52;1.00;;;0.50;;
40072;SDS011;25774;52.256;9.356;2023-04-24T02:15:17;0.50;;;0.33;;
40072;SDS011;25774;52.256;9.356;2023-04-24T02:17:43;0.83;;;0.50;;
40072;SDS011;25774;52.256;9.356;2023-04-24T02:20:08;1.03;;;0.60;;
40072;SDS011;25774;52.256;9.356;2023-04-24T02:22:33;1.47;;;0.50;;
40072;SDS011;25774;52.256;9.356;2023-04-24T02:24:58;0.43;;;0.30;;
40072;SDS011;25774;52.256;9.356;2023-04-24T02:27:24;0.70;;;0.30;;
40072;SDS011;25774;52.256;9.356;2023-04-24T02:29:50;1.13;;;0.60;;
40072;SDS011;25774;52.256;9.356;2023-04-24T02:32:15;0.93;;;0.55;;
40072;SDS011;25774;52.256;9.356;2023-04-24T02:34:41;0.77;;;0.53;;
40072;SDS011;25774;52.256;9.356;2023-04-24T02:37:06;1.57;;;0.60;;
40072;SDS011;25774;52.256;9.356;2023-04-24T02:39:31;0.80;;;0.53;;
40072;SDS011;25774;52.256;9.356;2023-04-24T02:41:56;0.80;;;0.50;;
40072;SDS011;25774;52.256;9.356;2023-04-24T02:44:21;0.40;;;0.30;;
40072;SDS011;25774;52.256;9.356;2023-04-24T02:46:47;0.85;;;0.43;;
40072;SDS011;25774;52.256;9.356;2023-04-24T02:49:12;1.10;;;0.40;;
40072;SDS011;25774;52.256;9.356;2023-04-24T02:51:38;1.00;;;0.60;;
40072;SDS011;25774;52.256;9.356;2023-04-24T02:54:06;1.00;;;0.30;;
40072;SDS011;25774;52.256;9.356;2023-04-24T02:56:31;0.65;;;0.30;;
40072;SDS011;25774;52.256;9.356;2023-04-24T02:58:56;1.75;;;0.30;;
40072;SDS011;25774;52.256;9.356;2023-04-24T03:01:22;2.30;;;0.50;;
40072;SDS011;25774;52.256;9.356;2023-04-24T03:03:47;1.00;;;0.43;;
40072;SDS011;25774;52.256;9.356;2023-04-24T03:06:12;4.50;;;0.40;;
40072;SDS011;25774;52.256;9.356;2023-04-24T03:08:37;0.73;;;0.30;;
40072;SDS011;25774;52.256;9.356;2023-04-24T03:11:03;1.60;;;0.47;;
40072;SDS011;25774;52.256;9.356;2023-04-24T03:13:29;0.85;;;0.38;;
40072;SDS011;25774;52.256;9.356;2023-04-24T03:15:55;0.90;;;0.33;;
40072;SDS011;25774;52.256;9.356;2023-04-24T03:18:20;0.80;;;0.32;;
40072;SDS011;25774;52.256;9.356;2023-04-24T03:20:46;1.57;;;0.30;;
40072;SDS011;25774;52.256;9.356;2023-04-24T03:23:11;1.02;;;0.40;;
40072;SDS011;25774;52.256;9.356;2023-04-24T03:25:36;0.83;;;0.40;;
40072;SDS011;25774;52.256;9.356;2023-04-24T03:28:02;0.20;;;0.20;;
40072;SDS011;25774;52.256;9.356;2023-04-24T03:30:27;1.00;;;0.53;;
40072;SDS011;25774;52.256;9.356;2023-04-24T03:32:53;0.50;;;0.30;;
40072;SDS011;25774;52.256;9.356;2023-04-24T03:35:18;1.65;;;0.40;;
40072;SDS011;25774;52.256;9.356;2023-04-24T03:37:44;0.70;;;0.40;;
40072;SDS011;25774;52.256;9.356;2023-04-24T03:40:09;3.10;;;0.47;;
40072;SDS011;25774;52.256;9.356;2023-04-24T03:42:34;0.30;;;0.30;;
40072;SDS011;25774;52.256;9.356;2023-04-24T03:45:01;0.40;;;0.40;;
40072;SDS011;25774;52.256;9.356;2023-04-24T03:47:27;0.73;;;0.40;;
40072;SDS011;25774;52.256;9.356;2023-04-24T03:49:52;2.27;;;0.30;;
40072;SDS011;25774;52.256;9.356;2023-04-24T03:52:18;0.88;;;0.40;;
40072;SDS011;25774;52.256;9.356;2023-04-24T03:54:43;1.97;;;0.40;;
40072;SDS011;25774;52.256;9.356;2023-04-24T03:57:09;0.63;;;0.37;;
40072;SDS011;25774;52.256;9.356;2023-04-24T03:59:34;0.77;;;0.40;;
40072;SDS011;25774;52.256;9.356;2023-04-24T04:01:59;0.80;;;0.40;;
40072;SDS011;25774;52.256;9.356;2023-04-24T04:04:24;0.60;;;0.30;;
40072;SDS011;25774;52.256;9.356;2023-04-24T04:06:51;1.00;;;0.40;;
40072;SDS011;25774;52.256;9.356;2023-04-24T04:09:17;1.90;;;0.68;;
40072;SDS011;25774;52.256;9.356;2023-04-24T04:11:42;0.50;;;0.30;;
40072;SDS011;25774;52.256;9.356;2023-04-24T04:14:08;0.57;;;0.30;;
40072;SDS011;25774;52.256;9.356;2023-04-24T04:16:33;0.40;;;0.30;;
40072;SDS011;25774;52.256;9.356;2023-04-24T04:19:01;0.50;;;0.38;;
40072;SDS011;25774;52.256;9.356;2023-04-24T04:21:27;0.90;;;0.30;;
40072;SDS011;25774;52.256;9.356;2023-04-24T04:23:53;0.50;;;0.30;;
40072;SDS011;25774;52.256;9.356;2023-04-24T04:26:18;1.87;;;0.47;;
40072;SDS011;25774;52.256;9.356;2023-04-24T04:28:46;1.10;;;0.38;;
40072;SDS011;25774;52.256;9.356;2023-04-24T04:31:12;0.30;;;0.20;;
40072;SDS011;25774;52.256;9.356;2023-04-24T04:33:37;1.70;;;0.40;;
40072;SDS011;25774;52.256;9.356;2023-04-24T04:38:29;0.40;;;0.30;;
40072;SDS011;25774;52.256;9.356;2023-04-24T04:40:55;3.93;;;0.50;;
40072;SDS011;25774;52.256;9.356;2023-04-24T04:43:22;0.35;;;0.25;;
40072;SDS011;25774;52.256;9.356;2023-04-24T04:45:47;1.10;;;0.47;;
40072;SDS011;25774;52.256;9.356;2023-04-24T04:48:13;1.65;;;0.20;;
40072;SDS011;25774;52.256;9.356;2023-04-24T04:50:39;2.63;;;0.43;;
40072;SDS011;25774;52.256;9.356;2023-04-24T04:53:04;0.37;;;0.33;;
40072;SDS011;25774;52.256;9.356;2023-04-24T04:55:30;0.50;;;0.40;;
40072;SDS011;25774;52.256;9.356;2023-04-24T04:57:55;0.73;;;0.40;;
40072;SDS011;25774;52.256;9.356;2023-04-24T05:00:21;1.08;;;0.50;;
40072;SDS011;25774;52.256;9.356;2023-04-24T05:02:47;0.83;;;0.47;;
40072;SDS011;25774;52.256;9.356;2023-04-24T05:05:12;1.02;;;0.60;;
40072;SDS011;25774;52.256;9.356;2023-04-24T05:07:38;0.63;;;0.40;;
40072;SDS011;25774;52.256;9.356;2023-04-24T05:10:03;0.97;;;0.60;;
40072;SDS011;25774;52.256;9.356;2023-04-24T05:12:28;1.30;;;0.60;;
40072;SDS011;25774;52.256;9.356;2023-04-24T05:14:53;1.03;;;0.57;;
40072;SDS011;25774;52.256;9.356;2023-04-24T05:17:19;1.03;;;0.60;;
40072;SDS011;25774;52.256;9.356;2023-04-24T05:19:44;1.17;;;0.60;;
40072;SDS011;25774;52.256;9.356;2023-04-24T05:22:11;0.83;;;0.50;;
40072;SDS011;25774;52.256;9.356;2023-04-24T05:24:36;0.90;;;0.60;;
40072;SDS011;25774;52.256;9.356;2023-04-24T05:27:02;1.20;;;0.67;;
40072;SDS011;25774;52.256;9.356;2023-04-24T05:29:27;1.80;;;0.77;;
40072;SDS011;25774;52.256;9.356;2023-04-24T05:31:52;1.97;;;1.03;;
40072;SDS011;25774;52.256;9.356;2023-04-24T05:34:18;0.70;;;0.53;;
40072;SDS011;25774;52.256;9.356;2023-04-24T05:36:43;1.73;;;0.63;;
40072;SDS011;25774;52.256;9.356;2023-04-24T05:39:08;1.43;;;0.60;;
40072;SDS011;25774;52.256;9.356;2023-04-24T05:41:33;1.97;;;0.90;;
40072;SDS011;25774;52.256;9.356;2023-04-24T05:43:59;2.90;;;1.87;;
40072;SDS011;25774;52.256;9.356;2023-04-24T05:46:24;1.30;;;0.80;;
40072;SDS011;25774;52.256;9.356;2023-04-24T05:48:50;1.87;;;1.00;;
40072;SDS011;25774;52.256;9.356;2023-04-24T05:51:15;2.90;;;1.20;;
40072;SDS011;25774;52.256;9.356;2023-04-24T05:53:40;1.53;;;0.83;;
40072;SDS011;25774;52.256;9.356;2023-04-24T05:56:06;2.57;;;1.23;;
40072;SDS011;25774;52.256;9.356;2023-04-24T05:58:32;4.07;;;1.87;;
40072;SDS011;25774;52.256;9.356;2023-04-24T06:03:23;2.70;;;1.10;;
40072;SDS011;25774;52.256;9.356;2023-04-24T06:05:49;2.27;;;1.10;;
40072;SDS011;25774;52.256;9.356;2023-04-24T06:08:15;1.98;;;1.23;;
40072;SDS011;25774;52.256;9.356;2023-04-24T06:10:40;5.37;;;2.03;;
40072;SDS011;25774;52.256;9.356;2023-04-24T06:13:05;4.27;;;2.07;;
40072;SDS011;25774;52.256;9.356;2023-04-24T06:15:30;4.80;;;1.83;;
40072;SDS011;25774;52.256;9.356;2023-04-24T06:17:58;4.40;;;2.42;;
40072;SDS011;25774;52.256;9.356;2023-04-24T06:20:24;3.23;;;2.23;;
40072;SDS011;25774;52.256;9.356;2023-04-24T06:22:49;3.75;;;2.03;;
40072;SDS011;25774;52.256;9.356;2023-04-24T06:25:15;3.83;;;2.30;;
40072;SDS011;25774;52.256;9.356;2023-04-24T06:27:41;5.23;;;2.40;;
40072;SDS011;25774;52.256;9.356;2023-04-24T06:30:06;3.40;;;2.05;;
40072;SDS011;25774;52.256;9.356;2023-04-24T06:32:32;4.80;;;2.90;;
40072;SDS011;25774;52.256;9.356;2023-04-24T06:34:57;4.43;;;2.70;;
40072;SDS011;25774;52.256;9.356;2023-04-24T06:37:22;6.90;;;2.90;;
40072;SDS011;25774;52.256;9.356;2023-04-24T06:39:47;5.00;;;3.07;;
40072;SDS011;25774;52.256;9.356;2023-04-24T06:42:13;3.63;;;2.70;;
40072;SDS011;25774;52.256;9.356;2023-04-24T06:44:38;4.10;;;2.90;;
40072;SDS011;25774;52.256;9.356;2023-04-24T06:47:06;5.60;;;2.90;;
40072;SDS011;25774;52.256;9.356;2023-04-24T06:51:57;7.83;;;3.13;;
40072;SDS011;25774;52.256;9.356;2023-04-24T06:54:22;6.73;;;3.77;;
40072;SDS011;25774;52.256;9.356;2023-04-24T06:56:47;4.90;;;2.83;;
40072;SDS011;25774;52.256;9.356;2023-04-24T06:59:13;6.82;;;3.63;;
40072;SDS011;25774;52.256;9.356;2023-04-24T07:01:39;6.90;;;3.10;;
40072;SDS011;25774;52.256;9.356;2023-04-24T07:04:05;7.67;;;3.63;;
40072;SDS011;25774;52.256;9.356;2023-04-24T07:06:30;6.38;;;3.35;;
40072;SDS011;25774;52.256;9.356;2023-04-24T07:08:55;6.13;;;3.40;;
40072;SDS011;25774;52.256;9.356;2023-04-24T07:11:21;6.53;;;2.97;;
40072;SDS011;25774;52.256;9.356;2023-04-24T07:13:47;6.10;;;3.70;;
40072;SDS011;25774;52.256;9.356;2023-04-24T07:16:12;6.13;;;4.07;;
40072;SDS011;25774;52.256;9.356;2023-04-24T07:18:37;7.47;;;3.73;;
40072;SDS011;25774;52.256;9.356;2023-04-24T07:21:04;7.85;;;4.40;;
40072;SDS011;25774;52.256;9.356;2023-04-24T07:23:29;6.63;;;3.87;;
40072;SDS011;25774;52.256;9.356;2023-04-24T07:25:56;8.63;;;4.55;;
40072;SDS011;25774;52.256;9.356;2023-04-24T07:28:21;7.53;;;4.47;;
40072;SDS011;25774;52.256;9.356;2023-04-24T07:30:47;6.60;;;3.87;;
40072;SDS011;25774;52.256;9.356;2023-04-24T07:33:12;8.80;;;4.90;;
40072;SDS011;25774;52.256;9.356;2023-04-24T07:35:38;6.30;;;3.97;;
40072;SDS011;25774;52.256;9.356;2023-04-24T07:38:03;7.03;;;4.33;;
40072;SDS011;25774;52.256;9.356;2023-04-24T07:40:28;6.47;;;4.13;;
40072;SDS011;25774;52.256;9.356;2023-04-24T07:42:54;7.93;;;4.40;;
40072;SDS011;25774;52.256;9.356;2023-04-24T07:45:19;6.50;;;4.57;;
40072;SDS011;25774;52.256;9.356;2023-04-24T07:47:45;5.82;;;3.97;;
40072;SDS011;25774;52.256;9.356;2023-04-24T07:50:11;6.87;;;4.23;;
40072;SDS011;25774;52.256;9.356;2023-04-24T07:52:36;7.27;;;4.07;;
40072;SDS011;25774;52.256;9.356;2023-04-24T07:55:01;8.23;;;4.20;;
40072;SDS011;25774;52.256;9.356;2023-04-24T07:57:27;8.70;;;4.30;;
40072;SDS011;25774;52.256;9.356;2023-04-24T07:59:54;6.93;;;4.23;;
40072;SDS011;25774;52.256;9.356;2023-04-24T08:02:19;11.40;;;4.97;;
40072;SDS011;25774;52.256;9.356;2023-04-24T08:04:46;6.88;;;4.20;;
40072;SDS011;25774;52.256;9.356;2023-04-24T08:07:11;8.17;;;4.10;;
40072;SDS011;25774;52.256;9.356;2023-04-24T08:09:38;5.75;;;4.05;;
40072;SDS011;25774;52.256;9.356;2023-04-24T08:12:04;7.97;;;3.77;;
40072;SDS011;25774;52.256;9.356;2023-04-24T08:14:29;6.70;;;4.22;;
40072;SDS011;25774;52.256;9.356;2023-04-24T08:16:56;6.10;;;3.77;;
40072;SDS011;25774;52.256;9.356;2023-04-24T08:19:22;5.95;;;4.00;;
40072;SDS011;25774;52.256;9.356;2023-04-24T08:21:47;6.17;;;4.70;;
40072;SDS011;25774;52.256;9.356;2023-04-24T08:24:12;7.67;;;3.50;;
40072;SDS011;25774;52.256;9.356;2023-04-24T08:26:38;10.13;;;4.23;;
40072;SDS011;25774;52.256;9.356;2023-04-24T08:29:04;6.07;;;3.53;;
40072;SDS011;25774;52.256;9.356;2023-04-24T08:31:31;4.88;;;3.08;;
40072;SDS011;25774;52.256;9.356;2023-04-24T08:33:57;6.80;;;3.47;;
40072;SDS011;25774;52.256;9.356;2023-04-24T08:36:22;5.45;;;3.40;;
40072;SDS011;25774;52.256;9.356;2023-04-24T08:38:48;4.80;;;3.10;;
40072;SDS011;25774;52.256;9.356;2023-04-24T08:41:14;6.97;;;3.43;;
40072;SDS011;25774;52.256;9.356;2023-04-24T08:43:39;4.95;;;3.15;;
40072;SDS011;25774;52.256;9.356;2023-04-24T08:46:04;6.93;;;3.80;;
40072;SDS011;25774;52.256;9.356;2023-04-24T08:48:30;4.60;;;2.97;;
40072;SDS011;25774;52.256;9.356;2023-04-24T08:50:56;4.30;;;2.67;;
40072;SDS011;25774;52.256;9.356;2023-04-24T08:53:21;5.97;;;3.30;;
40072;SDS011;25774;52.256;9.356;2023-04-24T08:55:47;5.13;;;2.92;;
40072;SDS011;25774;52.256;9.356;2023-04-24T08:58:13;4.15;;;2.20;;
40072;SDS011;25774;52.256;9.356;2023-04-24T09:00:39;4.35;;;2.53;;
40072;SDS011;25774;52.256;9.356;2023-04-24T09:03:04;4.43;;;2.70;;
40072;SDS011;25774;52.256;9.356;2023-04-24T09:05:30;3.15;;;2.03;;
40072;SDS011;25774;52.256;9.356;2023-04-24T09:07:56;3.70;;;2.50;;
40072;SDS011;25774;52.256;9.356;2023-04-24T09:10:24;5.20;;;2.73;;
40072;SDS011;25774;52.256;9.356;2023-04-24T09:12:50;3.80;;;2.33;;
40072;SDS011;25774;52.256;9.356;2023-04-24T09:15:15;4.40;;;2.55;;
40072;SDS011;25774;52.256;9.356;2023-04-24T09:17:40;4.00;;;2.00;;
40072;SDS011;25774;52.256;9.356;2023-04-24T09:20:06;3.60;;;2.17;;
40072;SDS011;25774;52.256;9.356;2023-04-24T09:22:31;3.50;;;2.47;;
40072;SDS011;25774;52.256;9.356;2023-04-24T09:25:03;4.30;;;2.43;;
40072;SDS011;25774;52.256;9.356;2023-04-24T09:27:30;3.20;;;2.22;;
40072;SDS011;25774;52.256;9.356;2023-04-24T09:29:56;4.63;;;2.23;;
40072;SDS011;25774;52.256;9.356;2023-04-24T09:32:22;3.45;;;2.30;;
40072;SDS011;25774;52.256;9.356;2023-04-24T09:34:50;4.00;;;2.20;;
40072;SDS011;25774;52.256;9.356;2023-04-24T09:37:29;3.40;;;1.92;;
40072;SDS011;25774;52.256;9.356;2023-04-24T09:40:10;5.57;;;2.10;;
40072;SDS011;25774;52.256;9.356;2023-04-24T09:42:37;3.97;;;2.03;;
40072;SDS011;25774;52.256;9.356;2023-04-24T09:45:02;3.00;;;1.70;;
40072;SDS011;25774;52.256;9.356;2023-04-24T09:47:35;3.00;;;2.10;;
40072;SDS011;25774;52.256;9.356;2023-04-24T09:50:01;3.47;;;1.80;;
40072;SDS011;25774;52.256;9.356;2023-04-24T09:52:33;4.20;;;2.13;;
40072;SDS011;25774;52.256;9.356;2023-04-24T09:54:58;3.42;;;1.80;;
40072;SDS011;25774;52.256;9.356;2023-04-24T09:57:23;14.10;;;2.40;;
40072;SDS011;25774;52.256;9.356;2023-04-24T09:59:49;2.90;;;1.55;;
40072;SDS011;25774;52.256;9.356;2023-04-24T10:02:19;2.35;;;1.70;;
40072;SDS011;25774;52.256;9.356;2023-04-24T10:04:54;3.95;;;1.55;;
40072;SDS011;25774;52.256;9.356;2023-04-24T10:07:20;2.17;;;1.15;;
40072;SDS011;25774;52.256;9.356;2023-04-24T10:09:45;2.37;;;1.40;;
40072;SDS011;25774;52.256;9.356;2023-04-24T10:12:10;2.87;;;1.30;;
40072;SDS011;25774;52.256;9.356;2023-04-24T10:14:36;1.73;;;1.00;;
40072;SDS011;25774;52.256;9.356;2023-04-24T10:17:02;2.23;;;1.27;;
40072;SDS011;25774;52.256;9.356;2023-04-24T10:21:53;2.67;;;1.10;;
40072;SDS011;25774;52.256;9.356;2023-04-24T10:24:19;1.77;;;1.10;;
40072;SDS011;25774;52.256;9.356;2023-04-24T10:26:47;2.15;;;0.88;;
40072;SDS011;25774;52.256;9.356;2023-04-24T10:29:14;6.00;;;1.63;;
40072;SDS011;25774;52.256;9.356;2023-04-24T10:31:40;2.67;;;1.33;;
40072;SDS011;25774;52.256;9.356;2023-04-24T10:34:06;1.83;;;1.10;;
40072;SDS011;25774;52.256;9.356;2023-04-24T10:36:37;1.80;;;1.27;;
40072;SDS011;25774;52.256;9.356;2023-04-24T10:39:06;1.92;;;0.88;;
40072;SDS011;25774;52.256;9.356;2023-04-24T10:41:33;1.38;;;0.98;;
40072;SDS011;25774;52.256;9.356;2023-04-24T10:44:09;1.53;;;0.70;;
40072;SDS011;25774;52.256;9.356;2023-04-24T10:46:38;2.88;;;1.25;;
40072;SDS011;25774;52.256;9.356;2023-04-24T10:54:22;1.73;;;0.90;;
40072;SDS011;25774;52.256;9.356;2023-04-24T10:56:47;3.55;;;1.00;;
40072;SDS011;25774;52.256;9.356;2023-04-24T10:59:13;1.30;;;0.77;;
40072;SDS011;25774;52.256;9.356;2023-04-24T11:01:52;1.52;;;0.70;;
40072;SDS011;25774;52.256;9.356;2023-04-24T11:04:30;2.35;;;0.90;;
40072;SDS011;25774;52.256;9.356;2023-04-24T11:06:56;1.52;;;0.50;;
40072;SDS011;25774;52.256;9.356;2023-04-24T11:09:22;1.10;;;0.77;;
40072;SDS011;25774;52.256;9.356;2023-04-24T11:11:53;1.15;;;0.60;;
40072;SDS011;25774;52.256;9.356;2023-04-24T11:14:27;1.70;;;0.70;;
40072;SDS011;25774;52.256;9.356;2023-04-24T11:16:52;1.00;;;0.50;;
40072;SDS011;25774;52.256;9.356;2023-04-24T11:19:20;0.90;;;0.60;;
40072;SDS011;25774;52.256;9.356;2023-04-24T11:24:23;0.87;;;0.50;;
40072;SDS011;25774;52.256;9.356;2023-04-24T11:26:50;1.05;;;0.47;;
40072;SDS011;25774;52.256;9.356;2023-04-24T11:29:15;1.50;;;0.82;;
40072;SDS011;25774;52.256;9.356;2023-04-24T11:31:41;0.50;;;0.40;;
40072;SDS011;25774;52.256;9.356;2023-04-24T11:34:14;0.63;;;0.38;;
40072;SDS011;25774;52.256;9.356;2023-04-24T11:36:43;0.43;;;0.40;;
40072;SDS011;25774;52.256;9.356;2023-04-24T11:39:08;0.73;;;0.45;;
40072;SDS011;25774;52.256;9.356;2023-04-24T11:41:33;0.90;;;0.50;;
40072;SDS011;25774;52.256;9.356;2023-04-24T11:43:59;0.77;;;0.50;;
40072;SDS011;25774;52.256;9.356;2023-04-24T11:46:27;0.93;;;0.50;;
40072;SDS011;25774;52.256;9.356;2023-04-24T11:48:52;1.10;;;0.50;;
40072;SDS011;25774;52.256;9.356;2023-04-24T11:51:18;0.80;;;0.50;;
40072;SDS011;25774;52.256;9.356;2023-04-24T11:53:43;1.27;;;0.37;;
40072;SDS011;25774;52.256;9.356;2023-04-24T11:56:08;1.07;;;0.53;;
40072;SDS011;25774;52.256;9.356;2023-04-24T11:58:35;0.73;;;0.30;;
40072;SDS011;25774;52.256;9.356;2023-04-24T12:01:00;0.43;;;0.40;;
40072;SDS011;25774;52.256;9.356;2023-04-24T12:03:28;1.20;;;0.50;;
40072;SDS011;25774;52.256;9.356;2023-04-24T12:06:04;3.28;;;0.50;;
40072;SDS011;25774;52.256;9.356;2023-04-24T12:08:30;0.63;;;0.50;;
40072;SDS011;25774;52.256;9.356;2023-04-24T12:10:56;0.90;;;0.60;;
40072;SDS011;25774;52.256;9.356;2023-04-24T12:13:22;0.73;;;0.60;;
40072;SDS011;25774;52.256;9.356;2023-04-24T12:15:50;1.25;;;0.60;;
40072;SDS011;25774;52.256;9.356;2023-04-24T12:18:15;0.87;;;0.50;;
40072;SDS011;25774;52.256;9.356;2023-04-24T12:20:41;0.80;;;0.45;;
40072;SDS011;25774;52.256;9.356;2023-04-24T12:23:07;0.60;;;0.40;;
40072;SDS011;25774;52.256;9.356;2023-04-24T12:25:32;0.37;;;0.33;;
40072;SDS011;25774;52.256;9.356;2023-04-24T12:30:30;0.70;;;0.50;;
40072;SDS011;25774;52.256;9.356;2023-04-24T12:32:56;0.75;;;0.50;;
40072;SDS011;25774;52.256;9.356;2023-04-24T12:35:22;0.93;;;0.52;;
40072;SDS011;25774;52.256;9.356;2023-04-24T12:37:48;0.82;;;0.60;;
40072;SDS011;25774;52.256;9.356;2023-04-24T12:40:13;1.03;;;0.63;;
40072;SDS011;25774;52.256;9.356;2023-04-24T12:42:46;0.82;;;0.50;;
40072;SDS011;25774;52.256;9.356;2023-04-24T12:45:12;0.75;;;0.40;;
40072;SDS011;25774;52.256;9.356;2023-04-24T12:47:39;0.60;;;0.50;;
40072;SDS011;25774;52.256;9.356;2023-04-24T12:50:05;0.90;;;0.50;;
40072;SDS011;25774;52.256;9.356;2023-04-24T12:52:31;0.40;;;0.40;;
40072;SDS011;25774;52.256;9.356;2023-04-24T12:54:57;0.90;;;0.60;;
40072;SDS011;25774;52.256;9.356;2023-04-24T12:57:23;0.52;;;0.50;;
40072;SDS011;25774;52.256;9.356;2023-04-24T12:59:49;0.40;;;0.30;;
40072;SDS011;25774;52.256;9.356;2023-04-24T13:02:15;0.93;;;0.53;;
40072;SDS011;25774;52.256;9.356;2023-04-24T13:04:44;1.00;;;0.50;;
40072;SDS011;25774;52.256;9.356;2023-04-24T13:09:35;0.68;;;0.43;;
40072;SDS011;25774;52.256;9.356;2023-04-24T13:12:01;0.75;;;0.40;;
40072;SDS011;25774;52.256;9.356;2023-04-24T13:14:26;0.20;;;0.20;;
40072;SDS011;25774;52.256;9.356;2023-04-24T13:16:51;0.70;;;0.40;;
40072;SDS011;25774;52.256;9.356;2023-04-24T13:19:17;0.40;;;0.30;;
40072;SDS011;25774;52.256;9.356;2023-04-24T13:21:42;1.02;;;0.50;;
40072;SDS011;25774;52.256;9.356;2023-04-24T13:24:08;1.10;;;0.30;;
40072;SDS011;25774;52.256;9.356;2023-04-24T13:26:33;0.80;;;0.40;;
40072;SDS011;25774;52.256;9.356;2023-04-24T13:28:59;1.03;;;0.30;;
40072;SDS011;25774;52.256;9.356;2023-04-24T13:31:24;0.20;;;0.20;;
40072;SDS011;25774;52.256;9.356;2023-04-24T13:33:49;0.30;;;0.20;;
40072;SDS011;25774;52.256;9.356;2023-04-24T13:36:15;0.30;;;0.30;;
40072;SDS011;25774;52.256;9.356;2023-04-24T13:38:41;0.32;;;0.30;;
40072;SDS011;25774;52.256;9.356;2023-04-24T13:41:06;0.33;;;0.20;;
40072;SDS011;25774;52.256;9.356;2023-04-24T13:43:32;0.93;;;0.40;;
40072;SDS011;25774;52.256;9.356;2023-04-24T13:45:57;0.80;;;0.50;;
40072;SDS011;25774;52.256;9.356;2023-04-24T13:48:24;0.90;;;0.40;;
40072;SDS011;25774;52.256;9.356;2023-04-24T13:50:49;0.67;;;0.40;;
40072;SDS011;25774;52.256;9.356;2023-04-24T13:53:15;0.97;;;0.40;;
40072;SDS011;25774;52.256;9.356;2023-04-24T13:55:40;0.87;;;0.53;;
40072;SDS011;25774;52.256;9.356;2023-04-24T13:58:05;1.73;;;0.70;;
40072;SDS011;25774;52.256;9.356;2023-04-24T14:00:31;1.85;;;0.50;;
40072;SDS011;25774;52.256;9.356;2023-04-24T14:02:59;3.67;;;0.63;;
40072;SDS011;25774;52.256;9.356;2023-04-24T14:05:24;2.58;;;1.02;;
40072;SDS011;25774;52.256;9.356;2023-04-24T14:07:50;1.57;;;0.70;;
40072;SDS011;25774;52.256;9.356;2023-04-24T14:10:16;0.93;;;0.70;;
40072;SDS011;25774;52.256;9.356;2023-04-24T14:12:41;1.70;;;0.77;;
40072;SDS011;25774;52.256;9.356;2023-04-24T14:15:06;2.93;;;0.90;;
40072;SDS011;25774;52.256;9.356;2023-04-24T14:17:32;2.05;;;1.27;;
40072;SDS011;25774;52.256;9.356;2023-04-24T14:19:57;1.67;;;0.87;;
40072;SDS011;25774;52.256;9.356;2023-04-24T14:22:24;2.00;;;0.70;;
40072;SDS011;25774;52.256;9.356;2023-04-24T14:24:49;2.33;;;1.03;;
40072;SDS011;25774;52.256;9.356;2023-04-24T14:27:15;2.92;;;1.00;;
40072;SDS011;25774;52.256;9.356;2023-04-24T14:29:40;1.33;;;0.80;;
40072;SDS011;25774;52.256;9.356;2023-04-24T14:32:06;6.13;;;1.13;;
40072;SDS011;25774;52.256;9.356;2023-04-24T14:34:34;1.70;;;0.90;;
40072;SDS011;25774;52.256;9.356;2023-04-24T14:37:01;3.73;;;1.50;;
40072;SDS011;25774;52.256;9.356;2023-04-24T14:39:26;3.30;;;1.20;;
40072;SDS011;25774;52.256;9.356;2023-04-24T14:41:51;4.97;;;1.10;;
40072;SDS011;25774;52.256;9.356;2023-04-24T14:44:17;2.97;;;1.20;;
40072;SDS011;25774;52.256;9.356;2023-04-24T14:46:42;7.60;;;1.40;;
40072;SDS011;25774;52.256;9.356;2023-04-24T14:49:08;3.10;;;1.40;;
40072;SDS011;25774;52.256;9.356;2023-04-24T14:51:34;4.88;;;1.10;;
40072;SDS011;25774;52.256;9.356;2023-04-24T14:54:00;4.93;;;1.70;;
40072;SDS011;25774;52.256;9.356;2023-04-24T14:56:25;3.07;;;1.10;;
40072;SDS011;25774;52.256;9.356;2023-04-24T14:58:52;5.27;;;1.20;;
40072;SDS011;25774;52.256;9.356;2023-04-24T15:01:17;2.47;;;1.48;;
40072;SDS011;25774;52.256;9.356;2023-04-24T15:03:43;3.78;;;1.70;;
40072;SDS011;25774;52.256;9.356;2023-04-24T15:06:08;3.53;;;1.67;;
40072;SDS011;25774;52.256;9.356;2023-04-24T15:08:33;5.00;;;2.10;;
40072;SDS011;25774;52.256;9.356;2023-04-24T15:10:58;2.70;;;1.30;;